createdAt,value
2023-03-17T00:01:37.576Z,95717.78
2023-03-17T00:04:25.715Z,95717.59
2023-03-17T00:07:06.602Z,95715.78
2023-03-17T00:10:00.593Z,95717.34
2023-03-17T00:12:47.593Z,95722.28
2023-03-17T00:15:28.589Z,95717.94
2023-03-17T00:18:23.577Z,95716.03
2023-03-17T00:20:57.172Z,95711.03
2023-03-17T00:23:43.579Z,95707.78
2023-03-17T00:26:18.727Z,95703.72
2023-03-17T00:29:08.597Z,95704.47
2023-03-17T00:31:50.617Z,95710.28
2023-03-17T00:34:44.590Z,95709.44
2023-03-17T00:37:38.598Z,95708.56
2023-03-17T00:40:37.594Z,95708.44
2023-03-17T00:43:24.610Z,95705.94
2023-03-17T00:45:57.762Z,95710.03
2023-03-17T00:48:44.595Z,95709.38
2023-03-17T00:51:18.795Z,95705.28
2023-03-17T00:54:05.613Z,95705.94
2023-03-17T00:56:38.702Z,95708.13
2023-03-17T00:59:37.631Z,95699.50
2023-03-17T01:02:11.797Z,95704.41
2023-03-17T01:05:05.828Z,95709.31
2023-03-17T01:07:39.697Z,95711.47
2023-03-17T01:10:30.893Z,95712.91
2023-03-17T01:13:05.770Z,95716.28
2023-03-17T01:15:54.663Z,95722.84
2023-03-17T01:18:29.867Z,95719.50
2023-03-17T01:21:16.630Z,95720.44
2023-03-17T01:23:49.757Z,95716.03
2023-03-17T01:26:36.630Z,95711.69
2023-03-17T01:29:17.600Z,95713.34
2023-03-17T01:32:11.684Z,95722.59
2023-03-17T01:34:58.620Z,95726.53
2023-03-17T01:37:32.166Z,95719.69
2023-03-17T01:40:23.612Z,95718.69
2023-03-17T01:43:05.708Z,95718.59
2023-03-17T01:46:20.635Z,95724.41
2023-03-17T01:49:05.911Z,95737.00
2023-03-17T01:52:24.616Z,95732.97
2023-03-17T01:55:18.615Z,95725.47
2023-03-17T01:58:13.612Z,95712.88
2023-03-17T02:01:00.695Z,95713.47
2023-03-17T02:03:34.724Z,95714.97
2023-03-17T02:06:21.629Z,95722.22
2023-03-17T02:08:55.632Z,95715.34
2023-03-17T02:11:42.641Z,95719.28
2023-03-17T02:14:19.661Z,95717.47
2023-03-17T02:17:09.644Z,95718.38
2023-03-17T02:19:45.767Z,95720.91
2023-03-17T02:22:32.593Z,95719.44
2023-03-17T02:25:06.535Z,95721.94
2023-03-17T02:27:57.683Z,95720.78
2023-03-17T02:30:31.049Z,95718.78
2023-03-17T02:33:18.641Z,95715.22
2023-03-17T02:35:51.977Z,95721.16
2023-03-17T02:38:38.676Z,95713.72
2023-03-17T02:41:12.710Z,95708.59
2023-03-17T02:44:00.669Z,95713.28
2023-03-17T02:46:33.775Z,95702.22
2023-03-17T02:49:21.657Z,95707.22
2023-03-17T02:51:55.010Z,95717.00
2023-03-17T02:54:41.684Z,95709.44
2023-03-17T02:57:15.921Z,95707.66
2023-03-17T03:00:02.627Z,95697.56
2023-03-17T03:02:42.760Z,95705.94
2023-03-17T03:05:36.658Z,95706.16
2023-03-17T03:08:23.663Z,95719.50
2023-03-17T03:10:56.765Z,95716.22
2023-03-17T03:13:44.648Z,95717.31
2023-03-17T03:16:17.798Z,95716.59
2023-03-17T03:19:04.688Z,95710.66
2023-03-17T03:21:44.849Z,95708.50
2023-03-17T03:24:31.658Z,95709.84
2023-03-17T03:27:04.739Z,95714.81
2023-03-17T03:29:51.666Z,95720.66
2023-03-17T03:32:24.737Z,95719.84
2023-03-17T03:35:11.682Z,95731.38
2023-03-17T03:37:44.785Z,95727.13
2023-03-17T03:40:32.165Z,95722.09
2023-03-17T03:43:16.329Z,95728.00
2023-03-17T03:46:09.646Z,95731.41
2023-03-17T03:48:42.789Z,95736.38
2023-03-17T03:51:29.668Z,95736.19
2023-03-17T03:54:02.758Z,95735.25
2023-03-17T03:56:49.650Z,95740.22
2023-03-17T03:59:29.639Z,95737.53
2023-03-17T04:02:23.805Z,95731.69
2023-03-17T04:05:12.650Z,95736.69
2023-03-17T04:07:45.895Z,95738.34
2023-03-17T04:10:32.877Z,95733.44
2023-03-17T04:13:06.776Z,95733.25
2023-03-17T04:15:53.681Z,95739.41
2023-03-17T04:18:26.741Z,95735.34
2023-03-17T04:21:14.692Z,95747.00
2023-03-17T04:23:54.689Z,95744.28
2023-03-17T04:26:41.849Z,95746.66
2023-03-17T04:29:16.142Z,95743.56
2023-03-17T04:32:02.688Z,95736.88
2023-03-17T04:34:43.681Z,95737.31
2023-03-17T04:37:32.294Z,95737.09
2023-03-17T04:40:14.721Z,95735.25
2023-03-17T04:43:08.666Z,95724.34
2023-03-17T04:46:02.736Z,95725.19
2023-03-17T04:48:56.675Z,95719.34
2023-03-17T04:51:43.671Z,95719.34
2023-03-17T04:54:16.831Z,95730.94
2023-03-17T04:57:03.680Z,95734.47
2023-03-17T04:59:43.682Z,95750.63
2023-03-17T05:02:37.714Z,95758.25
2023-03-17T05:05:31.685Z,95747.41
2023-03-17T05:08:25.705Z,95743.91
2023-03-17T05:11:12.691Z,95736.34
2023-03-17T05:13:47.012Z,95745.47
2023-03-17T05:16:33.736Z,95743.22
2023-03-17T05:19:06.897Z,95745.75
2023-03-17T05:21:54.837Z,95750.75
2023-03-17T05:24:34.685Z,95750.22
2023-03-17T05:27:21.690Z,95755.34
2023-03-17T05:29:54.788Z,95755.44
2023-03-17T05:32:42.832Z,95752.84
2023-03-17T05:35:19.904Z,95747.72
2023-03-17T05:38:06.687Z,95759.38
2023-03-17T05:40:39.780Z,95776.19
2023-03-17T05:43:26.698Z,95764.63
2023-03-17T05:46:00.382Z,95756.38
2023-03-17T05:48:46.685Z,95763.59
2023-03-17T05:51:19.801Z,95777.75
2023-03-17T05:54:06.696Z,95769.03
2023-03-17T05:56:40.417Z,95757.50
2023-03-17T05:59:26.713Z,95761.81
2023-03-17T06:01:59.796Z,95763.94
2023-03-17T06:04:46.711Z,95766.72
2023-03-17T06:07:20.593Z,95765.25
2023-03-17T06:10:08.693Z,95749.44
2023-03-17T06:12:41.913Z,95750.09
2023-03-17T06:15:28.876Z,95751.69
2023-03-17T06:18:02.816Z,95746.63
2023-03-17T06:20:49.748Z,95748.41
2023-03-17T06:23:23.869Z,95751.53
2023-03-17T06:26:11.693Z,95764.16
2023-03-17T06:28:44.821Z,95762.34
2023-03-17T06:31:31.811Z,95773.69
2023-03-17T06:34:11.694Z,95777.00
2023-03-17T06:37:05.753Z,95775.72
2023-03-17T06:39:59.711Z,95770.38
2023-03-17T06:42:53.717Z,95761.16
2023-03-17T06:45:40.713Z,95762.69
2023-03-17T06:48:13.805Z,95759.94
2023-03-17T06:51:00.718Z,95765.38
2023-03-17T06:53:33.799Z,95764.91
2023-03-17T06:56:29.863Z,95767.81
2023-03-17T06:59:04.979Z,95770.06
2023-03-17T07:01:58.795Z,95767.16
2023-03-17T07:04:52.799Z,95766.63
2023-03-17T07:07:41.702Z,95757.78
2023-03-17T07:10:15.979Z,95759.97
2023-03-17T07:13:02.720Z,95769.78
2023-03-17T07:15:36.015Z,95774.00
2023-03-17T07:18:23.734Z,95759.91
2023-03-17T07:20:56.787Z,95757.84
2023-03-17T07:23:43.736Z,95756.53
2023-03-17T07:26:16.944Z,95761.03
2023-03-17T07:29:03.790Z,95755.53
2023-03-17T07:31:38.680Z,95762.63
2023-03-17T07:34:25.715Z,95762.06
2023-03-17T07:36:58.819Z,95753.03
2023-03-17T07:39:46.741Z,95756.78
2023-03-17T07:42:28.749Z,95758.94
2023-03-17T07:45:16.720Z,95762.69
2023-03-17T07:47:50.169Z,95774.00
2023-03-17T07:50:36.722Z,95769.22
2023-03-17T07:53:10.978Z,95776.47
2023-03-17T07:55:57.726Z,95765.34
2023-03-17T07:58:37.771Z,95760.94
2023-03-17T08:01:31.799Z,95744.50
2023-03-17T08:04:25.728Z,95754.97
2023-03-17T08:07:12.811Z,95750.06
2023-03-17T08:09:53.724Z,95738.34
2023-03-17T08:12:41.743Z,95735.88
2023-03-17T08:15:22.755Z,95735.03
2023-03-17T08:18:16.783Z,95739.34
2023-03-17T08:21:03.785Z,95730.03
2023-03-17T08:23:43.737Z,95727.56
2023-03-17T08:26:37.830Z,95717.41
2023-03-17T08:29:24.760Z,95720.00
2023-03-17T08:32:04.778Z,95723.47
2023-03-17T08:34:58.764Z,95723.50
2023-03-17T08:37:45.774Z,95728.59
2023-03-17T08:40:29.179Z,95722.69
2023-03-17T08:43:16.752Z,95720.16
2023-03-17T08:45:56.785Z,95721.03
2023-03-17T08:48:43.771Z,95715.94
2023-03-17T08:51:24.811Z,95730.41
2023-03-17T08:54:13.774Z,95717.66
2023-03-17T08:56:47.883Z,95710.88
2023-03-17T08:59:34.785Z,95715.09
2023-03-17T09:02:14.784Z,95724.44
2023-03-17T09:05:01.812Z,95720.19
2023-03-17T09:07:34.964Z,95730.34
2023-03-17T09:10:23.758Z,95727.75
2023-03-17T09:13:09.804Z,95722.63
2023-03-17T09:16:03.930Z,95728.59
2023-03-17T09:18:58.784Z,95720.88
2023-03-17T09:21:52.779Z,95711.50
2023-03-17T09:24:39.770Z,95715.72
2023-03-17T09:27:19.777Z,95716.47
2023-03-17T09:30:06.765Z,95707.81
2023-03-17T09:32:39.914Z,95712.91
2023-03-17T09:35:26.800Z,95707.69
2023-03-17T09:38:01.139Z,95711.91
2023-03-17T09:40:59.791Z,95700.75
2023-03-17T09:43:40.011Z,95707.66
2023-03-17T09:47:13.823Z,95706.88
2023-03-17T09:49:49.945Z,95705.13
2023-03-17T09:52:40.793Z,95703.63
2023-03-17T09:55:25.805Z,95696.03
2023-03-17T09:58:19.805Z,95695.31
2023-03-17T10:01:08.787Z,95690.31
2023-03-17T10:03:42.810Z,95690.31
2023-03-17T10:06:52.802Z,95693.75
2023-03-17T10:10:08.911Z,95696.34
2023-03-17T10:13:23.802Z,95694.66
2023-03-17T10:16:10.831Z,95681.91
2023-03-17T10:19:09.822Z,95680.22
2023-03-17T10:22:04.788Z,95682.78
2023-03-17T10:24:40.923Z,95684.50
2023-03-17T10:27:27.811Z,95687.91
2023-03-17T10:30:00.964Z,95680.22
2023-03-17T10:32:48.894Z,95674.28
2023-03-17T10:35:23.926Z,95671.75
2023-03-17T10:38:25.864Z,95667.50
2023-03-17T10:41:14.810Z,95665.78
2023-03-17T10:44:03.836Z,95661.53
2023-03-17T10:46:37.660Z,95656.41
2023-03-17T10:49:24.805Z,95646.22
2023-03-17T10:52:07.823Z,95651.34
2023-03-17T10:55:02.846Z,95647.94
2023-03-17T10:58:20.810Z,95636.88
2023-03-17T11:01:07.854Z,95632.63
2023-03-17T11:03:55.868Z,95617.34
2023-03-17T11:06:47.933Z,95622.41
2023-03-17T11:09:42.949Z,95618.19
2023-03-17T11:13:02.840Z,95613.91
2023-03-17T11:16:02.848Z,95611.38
2023-03-17T11:18:49.833Z,95596.91
2023-03-17T11:21:53.827Z,95596.94
2023-03-17T11:24:54.833Z,95596.94
2023-03-17T11:27:47.821Z,95594.38
2023-03-17T11:30:47.437Z,95595.22
2023-03-17T11:33:40.836Z,95589.28
2023-03-17T11:36:17.324Z,95597.75
2023-03-17T11:39:29.871Z,95594.34
2023-03-17T11:42:19.861Z,95582.47
2023-03-17T11:45:15.850Z,95580.75
2023-03-17T11:48:14.834Z,95582.47
2023-03-17T11:51:21.849Z,95573.09
2023-03-17T11:54:48.869Z,95572.25
2023-03-17T11:58:03.859Z,95562.88
2023-03-17T12:01:03.825Z,95558.63
2023-03-17T12:04:03.064Z,95555.22
2023-03-17T12:06:57.171Z,95555.16
2023-03-17T12:09:59.861Z,95557.72
2023-03-17T12:13:00.836Z,95556.91
2023-03-17T12:16:10.959Z,95555.19
2023-03-17T12:18:59.966Z,95556.06
2023-03-17T12:22:09.844Z,95556.88
2023-03-17T12:24:47.969Z,95557.69
2023-03-17T12:27:45.922Z,95554.31
2023-03-17T12:30:47.973Z,95550.09
2023-03-17T12:33:42.854Z,95545.88
2023-03-17T12:36:19.973Z,95544.16
2023-03-17T12:39:12.862Z,95540.75
2023-03-17T12:42:08.883Z,95528.88
2023-03-17T12:45:14.852Z,95512.72
2023-03-17T12:47:56.960Z,95517.81
2023-03-17T12:51:12.859Z,95513.59
2023-03-17T12:53:50.766Z,95503.38
2023-03-17T12:56:39.917Z,95505.97
2023-03-17T12:59:26.845Z,95506.81
2023-03-17T13:02:41.862Z,95505.13
2023-03-17T13:05:45.844Z,95490.69
2023-03-17T13:08:41.897Z,95493.28
2023-03-17T13:11:30.862Z,95479.69
2023-03-17T13:14:40.890Z,95492.41
2023-03-17T13:17:27.883Z,95486.50
2023-03-17T13:20:29.989Z,95481.41
2023-03-17T13:23:16.868Z,95478.00
2023-03-17T13:26:05.860Z,95477.16
2023-03-17T13:29:02.888Z,95489.88
2023-03-17T13:31:49.877Z,95492.47
2023-03-17T13:34:26.981Z,95505.22
2023-03-17T13:37:36.867Z,95496.69
2023-03-17T13:40:44.890Z,95501.81
2023-03-17T13:43:52.891Z,95499.25
2023-03-17T13:46:32.109Z,95490.78
2023-03-17T13:49:28.889Z,95494.19
2023-03-17T13:52:27.902Z,95490.78
2023-03-17T13:55:23.987Z,95491.63
2023-03-17T13:58:21.980Z,95491.63
2023-03-17T14:01:12.958Z,95478.88
2023-03-17T14:03:50.115Z,95476.34
2023-03-17T14:06:37.891Z,95467.88
2023-03-17T14:09:29.915Z,95466.16
2023-03-17T14:12:35.890Z,95462.75
2023-03-17T14:15:35.892Z,95464.44
2023-03-17T14:18:32.906Z,95461.91
2023-03-17T14:21:37.902Z,95462.75
2023-03-17T14:24:45.883Z,95455.13
2023-03-17T14:27:47.904Z,95443.22
2023-03-17T14:30:37.911Z,95450.88
2023-03-17T14:33:11.099Z,95445.78
2023-03-17T14:35:59.928Z,95445.78
2023-03-17T14:38:48.918Z,95441.56
2023-03-17T14:41:42.899Z,95446.63
2023-03-17T14:44:29.949Z,95445.78
2023-03-17T14:47:12.352Z,95450.88
2023-03-17T14:50:01.905Z,95450.03
2023-03-17T14:52:41.207Z,95452.56
2023-03-17T14:55:27.913Z,95451.72
2023-03-17T14:58:07.954Z,95455.97
2023-03-17T15:01:02.978Z,95448.31
2023-03-17T15:03:39.055Z,95447.47
2023-03-17T15:06:32.937Z,95444.94
2023-03-17T15:09:10.035Z,95450.84
2023-03-17T15:11:56.961Z,95438.13
2023-03-17T15:15:19.020Z,95436.44
2023-03-17T15:18:09.932Z,95438.97
2023-03-17T15:20:49.943Z,95434.72
2023-03-17T15:23:45.948Z,95429.63
2023-03-17T15:26:41.927Z,95429.63
2023-03-17T15:29:35.929Z,95428.75
2023-03-17T15:32:27.025Z,95427.91
2023-03-17T15:35:03.014Z,95430.44
2023-03-17T15:37:49.945Z,95431.31
2023-03-17T15:40:30.221Z,95431.28
2023-03-17T15:43:30.956Z,95440.56
2023-03-17T15:46:28.993Z,95425.31
2023-03-17T15:49:02.056Z,95426.16
2023-03-17T15:51:48.936Z,95421.91
2023-03-17T15:54:31.934Z,95417.63
2023-03-17T15:57:25.960Z,95415.91
2023-03-17T16:00:13.975Z,95400.66
2023-03-17T16:02:48.106Z,95411.63
2023-03-17T16:05:37.943Z,95408.25
2023-03-17T16:08:17.990Z,95410.72
2023-03-17T16:11:04.941Z,95415.78
2023-03-17T16:13:37.998Z,95408.13
2023-03-17T16:16:30.950Z,95414.00
2023-03-17T16:19:05.307Z,95412.31
2023-03-17T16:21:51.961Z,95416.50
2023-03-17T16:24:34.764Z,95410.56
2023-03-17T16:27:21.938Z,95407.13
2023-03-17T16:29:55.057Z,95411.31
2023-03-17T16:32:41.982Z,95418.88
2023-03-17T16:35:48.993Z,95427.28
2023-03-17T16:38:45.973Z,95427.25
2023-03-17T16:41:33.968Z,95428.03
2023-03-17T16:44:09.472Z,95431.34
2023-03-17T16:46:56.045Z,95429.56
2023-03-17T16:49:29.390Z,95429.47
2023-03-17T16:52:16.981Z,95429.44
2023-03-17T16:54:50.238Z,95426.84
2023-03-17T16:57:36.972Z,95420.81
2023-03-17T17:00:15.502Z,95424.09
2023-03-17T17:03:09.002Z,95424.88
2023-03-17T17:06:02.983Z,95428.19
2023-03-17T17:08:50.979Z,95430.66
2023-03-17T17:11:32.984Z,95423.88
2023-03-17T17:14:26.993Z,95425.44
2023-03-17T17:17:13.981Z,95424.50
2023-03-17T17:19:47.057Z,95437.13
2023-03-17T17:22:35.005Z,95432.00
2023-03-17T17:25:10.036Z,95430.25
2023-03-17T17:27:56.994Z,95432.66
2023-03-17T17:30:33.647Z,95427.47
2023-03-17T17:33:23.001Z,95431.53
2023-03-17T17:35:57.194Z,95432.25
2023-03-17T17:38:43.991Z,95432.13
2023-03-17T17:41:21.627Z,95439.53
2023-03-17T17:44:07.986Z,95439.38
2023-03-17T17:46:48.056Z,95435.84
2023-03-17T17:49:34.980Z,95435.69
2023-03-17T17:52:14.998Z,95440.66
2023-03-17T17:55:09.003Z,95439.69
2023-03-17T17:57:55.981Z,95446.31
2023-03-17T18:00:30.231Z,95448.69
2023-03-17T18:03:23.999Z,95445.19
2023-03-17T18:06:11.978Z,95447.59
2023-03-17T18:08:53.024Z,95453.41
2023-03-17T18:11:47.977Z,95457.59
2023-03-17T18:14:34.992Z,95458.34
2023-03-17T18:17:08.670Z,95456.53
2023-03-17T18:20:02.015Z,95451.34
2023-03-17T18:22:35.107Z,95438.56
2023-03-17T18:25:22.005Z,95442.66
2023-03-17T18:28:01.998Z,95442.50
2023-03-17T18:30:56.991Z,95445.75
2023-03-17T18:33:53.019Z,95447.34
2023-03-17T18:36:46.987Z,95441.41
2023-03-17T18:39:35.004Z,95441.31
2023-03-17T18:42:16.036Z,95442.84
2023-03-17T18:45:13.171Z,95438.59
2023-03-17T18:48:07.002Z,95446.88
2023-03-17T18:51:01.030Z,95441.75
2023-03-17T18:53:48.016Z,95443.31
2023-03-17T18:56:23.331Z,95445.75
2023-03-17T18:59:10.106Z,95447.38
2023-03-17T19:01:50.017Z,95444.00
2023-03-17T19:04:44.039Z,95449.78
2023-03-17T19:07:31.018Z,95450.41
2023-03-17T19:10:11.012Z,95447.78
2023-03-17T19:12:59.034Z,95451.09
2023-03-17T19:15:32.155Z,95453.47
2023-03-17T19:18:19.029Z,95460.16
2023-03-17T19:20:52.573Z,95449.13
2023-03-17T19:23:40.008Z,95444.88
2023-03-17T19:26:20.019Z,95449.06
2023-03-17T19:29:07.029Z,95446.38
2023-03-17T19:31:48.723Z,95453.84
2023-03-17T19:34:36.011Z,95457.03
2023-03-17T19:37:10.120Z,95447.69
2023-03-17T19:39:57.059Z,95445.13
2023-03-17T19:42:40.027Z,95454.25
2023-03-17T19:45:34.043Z,95453.34
2023-03-17T19:48:21.032Z,95448.25
2023-03-17T19:51:01.052Z,95449.09
2023-03-17T19:53:48.024Z,95443.19
2023-03-17T19:56:21.241Z,95441.53
2023-03-17T19:59:09.139Z,95445.69
2023-03-17T20:01:43.188Z,95436.38
2023-03-17T20:04:37.127Z,95440.44
2023-03-17T20:07:31.065Z,95441.22
2023-03-17T20:10:26.080Z,95442.84
2023-03-17T20:13:23.051Z,95449.56
2023-03-17T20:16:19.089Z,95457.06
2023-03-17T20:19:07.066Z,95445.25
2023-03-17T20:21:40.867Z,95450.28
2023-03-17T20:24:28.051Z,95445.91
2023-03-17T20:27:08.099Z,95448.31
2023-03-17T20:29:55.047Z,95443.13
2023-03-17T20:32:35.074Z,95439.63
2023-03-17T20:35:29.041Z,95436.94
2023-03-17T20:38:21.044Z,95444.41
2023-03-17T20:40:54.202Z,95438.44
2023-03-17T20:43:44.065Z,95442.53
2023-03-17T20:46:23.712Z,95434.09
2023-03-17T20:49:12.091Z,95433.16
2023-03-17T20:51:46.461Z,95428.91
2023-03-17T20:54:33.059Z,95419.50
2023-03-17T20:57:13.055Z,95420.28
2023-03-17T21:00:00.092Z,95419.38
2023-03-17T21:02:33.197Z,95413.47
2023-03-17T21:05:29.100Z,95406.63
2023-03-17T21:08:16.047Z,95412.50
2023-03-17T21:10:49.172Z,95411.53
2023-03-17T21:13:37.073Z,95413.91
2023-03-17T21:16:10.206Z,95420.56
2023-03-17T21:18:58.073Z,95419.63
2023-03-17T21:21:31.197Z,95416.25
2023-03-17T21:24:35.083Z,95413.78
2023-03-17T21:27:11.264Z,95411.28
2023-03-17T21:29:59.086Z,95408.72
2023-03-17T21:32:32.277Z,95405.25
2023-03-17T21:35:19.081Z,95408.59
2023-03-17T21:37:52.456Z,95407.63
2023-03-17T21:40:39.058Z,95405.88
2023-03-17T21:43:12.199Z,95400.84
2023-03-17T21:45:59.143Z,95399.06
2023-03-17T21:48:39.101Z,95393.16
2023-03-17T21:51:27.071Z,95393.00
2023-03-17T21:54:00.187Z,95390.50
2023-03-17T21:56:48.085Z,95387.09
2023-03-17T21:59:29.084Z,95390.28
2023-03-17T22:02:19.078Z,95387.72
2023-03-17T22:04:52.205Z,95392.72
2023-03-17T22:07:39.092Z,95389.31
2023-03-17T22:10:12.240Z,95395.97
2023-03-17T22:12:59.084Z,95391.69
2023-03-17T22:15:39.080Z,95384.94
2023-03-17T22:18:34.088Z,95387.31
2023-03-17T22:21:21.084Z,95386.34
2023-03-17T22:23:55.185Z,95382.94
2023-03-17T22:26:42.129Z,95387.88
2023-03-17T22:29:15.315Z,95381.91
2023-03-17T22:32:02.092Z,95381.78
2023-03-17T22:34:42.099Z,95385.13
2023-03-17T22:37:36.101Z,95386.72
2023-03-17T22:40:26.119Z,95378.19
2023-03-17T22:43:09.098Z,95381.50
2023-03-17T22:45:56.138Z,95383.84
2023-03-17T22:48:29.304Z,95384.56
2023-03-17T22:51:19.106Z,95383.56
2023-03-17T22:53:59.113Z,95384.38
2023-03-17T22:56:46.100Z,95385.16
2023-03-17T22:59:19.191Z,95381.88
2023-03-17T23:02:06.164Z,95380.13
2023-03-17T23:04:47.102Z,95381.78
2023-03-17T23:07:50.333Z,95376.69
2023-03-17T23:10:44.102Z,95375.81
2023-03-17T23:13:38.146Z,95377.41
2023-03-17T23:16:27.144Z,95374.06
2023-03-17T23:19:01.338Z,95374.06
2023-03-17T23:21:48.157Z,95371.41
2023-03-17T23:24:28.122Z,95377.97
2023-03-17T23:27:15.193Z,95372.81
2023-03-17T23:29:48.205Z,95376.16
2023-03-17T23:32:35.304Z,95379.41
2023-03-17T23:35:08.611Z,95374.41
2023-03-17T23:37:55.192Z,95372.66
2023-03-17T23:40:36.195Z,95370.84
2023-03-17T23:43:30.127Z,95377.34
2023-03-17T23:46:20.151Z,95375.59
2023-03-17T23:49:02.100Z,95371.34
2023-03-17T23:51:49.154Z,95372.16
2023-03-17T23:54:22.959Z,95370.50
2023-03-17T23:57:10.102Z,95372.19
2023-03-17T23:59:43.516Z,95371.25
